sensor_id;sensor_type;location;lat;lon;timestamp;P1;durP1;ratioP1;P2;durP2;ratioP2
37791;SDS011;29527;55.766;37.570;2022-12-24T00:02:09;12.77;;;9.93;;
37791;SDS011;29527;55.766;37.570;2022-12-24T00:04:34;13.05;;;9.45;;
37791;SDS011;29527;55.766;37.570;2022-12-24T00:07:00;13.15;;;9.18;;
37791;SDS011;29527;55.766;37.570;2022-12-24T00:09:25;12.55;;;9.15;;
37791;SDS011;29527;55.766;37.570;2022-12-24T00:11:50;14.48;;;10.73;;
37791;SDS011;29527;55.766;37.570;2022-12-24T00:14:16;14.93;;;10.30;;
37791;SDS011;29527;55.766;37.570;2022-12-24T00:16:41;15.60;;;10.68;;
37791;SDS011;29527;55.766;37.570;2022-12-24T00:19:07;12.80;;;9.50;;
37791;SDS011;29527;55.766;37.570;2022-12-24T00:21:32;14.68;;;9.45;;
37791;SDS011;29527;55.766;37.570;2022-12-24T00:23:57;13.30;;;9.27;;
37791;SDS011;29527;55.766;37.570;2022-12-24T00:26:23;12.23;;;8.90;;
37791;SDS011;29527;55.766;37.570;2022-12-24T00:28:49;15.65;;;10.25;;
37791;SDS011;29527;55.766;37.570;2022-12-24T00:31:15;13.82;;;9.25;;
37791;SDS011;29527;55.766;37.570;2022-12-24T00:33:43;13.10;;;9.23;;
37791;SDS011;29527;55.766;37.570;2022-12-24T00:36:10;14.45;;;10.02;;
37791;SDS011;29527;55.766;37.570;2022-12-24T00:38:35;12.57;;;9.27;;
37791;SDS011;29527;55.766;37.570;2022-12-24T00:41:02;15.00;;;10.27;;
37791;SDS011;29527;55.766;37.570;2022-12-24T00:43:29;13.13;;;9.35;;
37791;SDS011;29527;55.766;37.570;2022-12-24T00:45:55;14.35;;;10.20;;
37791;SDS011;29527;55.766;37.570;2022-12-24T00:48:21;16.02;;;10.95;;
37791;SDS011;29527;55.766;37.570;2022-12-24T00:50:47;17.55;;;11.52;;
37791;SDS011;29527;55.766;37.570;2022-12-24T00:53:13;17.08;;;10.88;;
37791;SDS011;29527;55.766;37.570;2022-12-24T00:55:38;14.77;;;10.88;;
37791;SDS011;29527;55.766;37.570;2022-12-24T00:58:04;18.17;;;11.63;;
37791;SDS011;29527;55.766;37.570;2022-12-24T01:00:29;17.15;;;10.55;;
37791;SDS011;29527;55.766;37.570;2022-12-24T01:02:54;15.57;;;11.35;;
37791;SDS011;29527;55.766;37.570;2022-12-24T01:05:20;18.33;;;11.82;;
37791;SDS011;29527;55.766;37.570;2022-12-24T01:07:47;18.08;;;12.18;;
37791;SDS011;29527;55.766;37.570;2022-12-24T01:10:14;17.88;;;12.02;;
37791;SDS011;29527;55.766;37.570;2022-12-24T01:12:44;18.35;;;12.50;;
37791;SDS011;29527;55.766;37.570;2022-12-24T01:15:11;21.08;;;12.50;;
37791;SDS011;29527;55.766;37.570;2022-12-24T01:17:38;18.75;;;12.43;;
37791;SDS011;29527;55.766;37.570;2022-12-24T01:20:04;21.75;;;13.32;;
37791;SDS011;29527;55.766;37.570;2022-12-24T01:22:31;18.27;;;12.70;;
37791;SDS011;29527;55.766;37.570;2022-12-24T01:24:56;23.63;;;13.77;;
37791;SDS011;29527;55.766;37.570;2022-12-24T01:27:22;19.63;;;13.02;;
37791;SDS011;29527;55.766;37.570;2022-12-24T01:29:47;21.15;;;13.40;;
37791;SDS011;29527;55.766;37.570;2022-12-24T01:32:13;21.05;;;14.07;;
37791;SDS011;29527;55.766;37.570;2022-12-24T01:34:38;20.85;;;14.02;;
37791;SDS011;29527;55.766;37.570;2022-12-24T01:37:04;22.08;;;14.00;;
37791;SDS011;29527;55.766;37.570;2022-12-24T01:39:29;32.63;;;20.17;;
37791;SDS011;29527;55.766;37.570;2022-12-24T01:41:55;22.20;;;14.07;;
37791;SDS011;29527;55.766;37.570;2022-12-24T01:44:39;22.77;;;13.82;;
37791;SDS011;29527;55.766;37.570;2022-12-24T01:47:14;21.73;;;13.52;;
37791;SDS011;29527;55.766;37.570;2022-12-24T01:49:47;22.65;;;14.43;;
37791;SDS011;29527;55.766;37.570;2022-12-24T01:52:30;19.88;;;13.60;;
37791;SDS011;29527;55.766;37.570;2022-12-24T01:55:09;23.38;;;13.63;;
37791;SDS011;29527;55.766;37.570;2022-12-24T01:57:41;18.92;;;12.98;;
37791;SDS011;29527;55.766;37.570;2022-12-24T02:00:11;21.33;;;13.13;;
37791;SDS011;29527;55.766;37.570;2022-12-24T02:02:39;23.17;;;14.52;;
37791;SDS011;29527;55.766;37.570;2022-12-24T02:07:55;23.58;;;13.82;;
37791;SDS011;29527;55.766;37.570;2022-12-24T02:10:21;24.95;;;14.68;;
37791;SDS011;29527;55.766;37.570;2022-12-24T02:12:47;20.92;;;13.55;;
37791;SDS011;29527;55.766;37.570;2022-12-24T02:15:14;21.75;;;13.07;;
37791;SDS011;29527;55.766;37.570;2022-12-24T02:17:58;19.90;;;13.82;;
37791;SDS011;29527;55.766;37.570;2022-12-24T02:32:04;20.65;;;12.48;;
37791;SDS011;29527;55.766;37.570;2022-12-24T02:34:38;20.45;;;12.90;;
37791;SDS011;29527;55.766;37.570;2022-12-24T02:37:16;21.05;;;13.77;;
37791;SDS011;29527;55.766;37.570;2022-12-24T02:39:54;20.00;;;12.68;;
37791;SDS011;29527;55.766;37.570;2022-12-24T02:42:30;20.85;;;13.15;;
37791;SDS011;29527;55.766;37.570;2022-12-24T02:45:05;21.55;;;13.68;;
37791;SDS011;29527;55.766;37.570;2022-12-24T02:47:31;20.92;;;13.25;;
37791;SDS011;29527;55.766;37.570;2022-12-24T02:49:59;20.00;;;12.43;;
37791;SDS011;29527;55.766;37.570;2022-12-24T02:52:32;23.83;;;13.52;;
37791;SDS011;29527;55.766;37.570;2022-12-24T02:55:05;22.92;;;13.88;;
37791;SDS011;29527;55.766;37.570;2022-12-24T02:57:41;22.13;;;13.20;;
37791;SDS011;29527;55.766;37.570;2022-12-24T03:00:16;20.13;;;12.52;;
37791;SDS011;29527;55.766;37.570;2022-12-24T03:02:50;18.42;;;12.32;;
37791;SDS011;29527;55.766;37.570;2022-12-24T03:11:12;20.83;;;13.25;;
37791;SDS011;29527;55.766;37.570;2022-12-24T03:13:39;21.20;;;12.80;;
37791;SDS011;29527;55.766;37.570;2022-12-24T03:16:07;19.55;;;12.77;;
37791;SDS011;29527;55.766;37.570;2022-12-24T03:18:36;24.27;;;14.27;;
37791;SDS011;29527;55.766;37.570;2022-12-24T03:21:06;20.75;;;13.10;;
37791;SDS011;29527;55.766;37.570;2022-12-24T03:23:36;20.85;;;14.43;;
37791;SDS011;29527;55.766;37.570;2022-12-24T03:26:04;22.77;;;14.32;;
37791;SDS011;29527;55.766;37.570;2022-12-24T03:28:32;21.85;;;14.27;;
37791;SDS011;29527;55.766;37.570;2022-12-24T03:31:00;22.67;;;14.43;;
37791;SDS011;29527;55.766;37.570;2022-12-24T03:33:27;23.98;;;14.52;;
37791;SDS011;29527;55.766;37.570;2022-12-24T03:35:52;23.20;;;14.75;;
37791;SDS011;29527;55.766;37.570;2022-12-24T03:38:18;23.42;;;15.02;;
37791;SDS011;29527;55.766;37.570;2022-12-24T03:40:43;25.83;;;15.30;;
37791;SDS011;29527;55.766;37.570;2022-12-24T03:43:09;23.52;;;14.85;;
37791;SDS011;29527;55.766;37.570;2022-12-24T03:45:34;24.60;;;14.88;;
37791;SDS011;29527;55.766;37.570;2022-12-24T03:48:00;26.23;;;15.00;;
37791;SDS011;29527;55.766;37.570;2022-12-24T03:50:25;23.67;;;14.93;;
37791;SDS011;29527;55.766;37.570;2022-12-24T03:52:51;26.48;;;15.50;;
37791;SDS011;29527;55.766;37.570;2022-12-24T03:55:16;27.98;;;15.90;;
37791;SDS011;29527;55.766;37.570;2022-12-24T03:57:41;25.48;;;15.27;;
37791;SDS011;29527;55.766;37.570;2022-12-24T04:00:07;25.63;;;16.20;;
37791;SDS011;29527;55.766;37.570;2022-12-24T04:02:33;25.05;;;16.33;;
37791;SDS011;29527;55.766;37.570;2022-12-24T04:04:58;25.42;;;16.55;;
37791;SDS011;29527;55.766;37.570;2022-12-24T04:07:24;27.58;;;16.98;;
37791;SDS011;29527;55.766;37.570;2022-12-24T04:09:49;25.35;;;16.05;;
37791;SDS011;29527;55.766;37.570;2022-12-24T04:12:14;24.65;;;15.30;;
37791;SDS011;29527;55.766;37.570;2022-12-24T04:14:40;25.48;;;15.00;;
37791;SDS011;29527;55.766;37.570;2022-12-24T04:17:05;27.70;;;15.80;;
37791;SDS011;29527;55.766;37.570;2022-12-24T04:19:31;27.55;;;15.10;;
37791;SDS011;29527;55.766;37.570;2022-12-24T04:21:56;25.13;;;15.38;;
37791;SDS011;29527;55.766;37.570;2022-12-24T04:24:21;25.60;;;15.48;;
37791;SDS011;29527;55.766;37.570;2022-12-24T04:26:47;23.30;;;14.52;;
37791;SDS011;29527;55.766;37.570;2022-12-24T04:29:13;23.27;;;14.65;;
37791;SDS011;29527;55.766;37.570;2022-12-24T04:31:38;23.25;;;15.13;;
37791;SDS011;29527;55.766;37.570;2022-12-24T04:34:04;26.10;;;15.63;;
37791;SDS011;29527;55.766;37.570;2022-12-24T04:36:29;23.65;;;14.73;;
37791;SDS011;29527;55.766;37.570;2022-12-24T04:38:55;24.92;;;14.68;;
37791;SDS011;29527;55.766;37.570;2022-12-24T04:41:21;23.38;;;14.70;;
37791;SDS011;29527;55.766;37.570;2022-12-24T04:43:47;23.00;;;14.00;;
37791;SDS011;29527;55.766;37.570;2022-12-24T04:46:17;24.00;;;14.20;;
37791;SDS011;29527;55.766;37.570;2022-12-24T04:48:48;22.15;;;15.15;;
37791;SDS011;29527;55.766;37.570;2022-12-24T04:51:15;24.75;;;14.98;;
37791;SDS011;29527;55.766;37.570;2022-12-24T04:53:41;24.05;;;14.68;;
37791;SDS011;29527;55.766;37.570;2022-12-24T04:56:08;25.52;;;15.18;;
37791;SDS011;29527;55.766;37.570;2022-12-24T04:58:39;28.67;;;16.52;;
37791;SDS011;29527;55.766;37.570;2022-12-24T05:01:05;25.92;;;15.23;;
37791;SDS011;29527;55.766;37.570;2022-12-24T05:03:36;24.05;;;15.10;;
37791;SDS011;29527;55.766;37.570;2022-12-24T05:06:03;24.20;;;15.38;;
37791;SDS011;29527;55.766;37.570;2022-12-24T05:08:29;24.30;;;14.77;;
37791;SDS011;29527;55.766;37.570;2022-12-24T05:10:58;26.80;;;15.10;;
37791;SDS011;29527;55.766;37.570;2022-12-24T05:13:24;26.70;;;15.85;;
37791;SDS011;29527;55.766;37.570;2022-12-24T05:15:50;28.10;;;16.33;;
37791;SDS011;29527;55.766;37.570;2022-12-24T05:18:16;25.13;;;14.95;;
37791;SDS011;29527;55.766;37.570;2022-12-24T05:20:41;27.23;;;16.08;;
37791;SDS011;29527;55.766;37.570;2022-12-24T05:23:08;27.23;;;16.17;;
37791;SDS011;29527;55.766;37.570;2022-12-24T05:25:57;25.58;;;16.10;;
37791;SDS011;29527;55.766;37.570;2022-12-24T05:28:41;27.98;;;15.77;;
37791;SDS011;29527;55.766;37.570;2022-12-24T05:31:07;25.45;;;15.70;;
37791;SDS011;29527;55.766;37.570;2022-12-24T05:33:32;25.88;;;15.65;;
37791;SDS011;29527;55.766;37.570;2022-12-24T05:35:57;26.38;;;15.95;;
37791;SDS011;29527;55.766;37.570;2022-12-24T05:38:23;26.95;;;16.13;;
37791;SDS011;29527;55.766;37.570;2022-12-24T05:40:48;27.60;;;16.95;;
37791;SDS011;29527;55.766;37.570;2022-12-24T05:43:14;25.70;;;16.17;;
37791;SDS011;29527;55.766;37.570;2022-12-24T05:45:39;28.70;;;16.92;;
37791;SDS011;29527;55.766;37.570;2022-12-24T05:48:05;29.23;;;16.73;;
37791;SDS011;29527;55.766;37.570;2022-12-24T05:50:32;28.45;;;16.45;;
37791;SDS011;29527;55.766;37.570;2022-12-24T05:52:58;30.75;;;17.13;;
37791;SDS011;29527;55.766;37.570;2022-12-24T05:55:23;27.40;;;16.88;;
37791;SDS011;29527;55.766;37.570;2022-12-24T05:57:49;26.35;;;16.08;;
37791;SDS011;29527;55.766;37.570;2022-12-24T06:00:14;26.80;;;15.38;;
37791;SDS011;29527;55.766;37.570;2022-12-24T06:02:40;26.15;;;16.45;;
37791;SDS011;29527;55.766;37.570;2022-12-24T06:05:05;24.58;;;15.18;;
37791;SDS011;29527;55.766;37.570;2022-12-24T06:07:31;25.95;;;15.93;;
37791;SDS011;29527;55.766;37.570;2022-12-24T06:09:56;27.05;;;15.15;;
37791;SDS011;29527;55.766;37.570;2022-12-24T06:12:22;24.95;;;15.63;;
37791;SDS011;29527;55.766;37.570;2022-12-24T06:14:48;25.88;;;15.25;;
37791;SDS011;29527;55.766;37.570;2022-12-24T06:17:13;25.77;;;14.88;;
37791;SDS011;29527;55.766;37.570;2022-12-24T06:19:38;21.63;;;13.98;;
37791;SDS011;29527;55.766;37.570;2022-12-24T06:22:04;22.05;;;13.32;;
37791;SDS011;29527;55.766;37.570;2022-12-24T06:24:29;20.52;;;13.38;;
37791;SDS011;29527;55.766;37.570;2022-12-24T06:26:55;20.38;;;13.13;;
37791;SDS011;29527;55.766;37.570;2022-12-24T06:29:20;25.10;;;13.82;;
37791;SDS011;29527;55.766;37.570;2022-12-24T06:31:46;21.42;;;12.75;;
37791;SDS011;29527;55.766;37.570;2022-12-24T06:34:11;24.45;;;14.15;;
37791;SDS011;29527;55.766;37.570;2022-12-24T06:36:36;23.55;;;13.77;;
37791;SDS011;29527;55.766;37.570;2022-12-24T06:39:02;20.88;;;13.82;;
37791;SDS011;29527;55.766;37.570;2022-12-24T06:41:27;23.25;;;14.23;;
37791;SDS011;29527;55.766;37.570;2022-12-24T06:43:53;22.20;;;13.35;;
37791;SDS011;29527;55.766;37.570;2022-12-24T06:46:19;21.90;;;14.40;;
37791;SDS011;29527;55.766;37.570;2022-12-24T06:48:45;24.83;;;14.88;;
37791;SDS011;29527;55.766;37.570;2022-12-24T06:51:11;26.08;;;13.68;;
37791;SDS011;29527;55.766;37.570;2022-12-24T06:53:37;26.48;;;15.20;;
37791;SDS011;29527;55.766;37.570;2022-12-24T06:56:03;23.83;;;14.70;;
37791;SDS011;29527;55.766;37.570;2022-12-24T06:58:31;24.50;;;14.10;;
37791;SDS011;29527;55.766;37.570;2022-12-24T07:00:59;25.73;;;15.50;;
37791;SDS011;29527;55.766;37.570;2022-12-24T07:03:25;27.92;;;15.82;;
37791;SDS011;29527;55.766;37.570;2022-12-24T07:05:51;26.02;;;15.75;;
37791;SDS011;29527;55.766;37.570;2022-12-24T07:08:17;28.85;;;16.23;;
37791;SDS011;29527;55.766;37.570;2022-12-24T07:10:43;27.70;;;15.40;;
37791;SDS011;29527;55.766;37.570;2022-12-24T07:13:08;24.40;;;15.10;;
37791;SDS011;29527;55.766;37.570;2022-12-24T07:15:34;24.27;;;14.20;;
37791;SDS011;29527;55.766;37.570;2022-12-24T07:17:59;28.73;;;15.32;;
37791;SDS011;29527;55.766;37.570;2022-12-24T07:20:25;24.10;;;13.98;;
37791;SDS011;29527;55.766;37.570;2022-12-24T07:22:50;27.42;;;15.13;;
37791;SDS011;29527;55.766;37.570;2022-12-24T07:25:16;27.55;;;14.32;;
37791;SDS011;29527;55.766;37.570;2022-12-24T07:27:41;27.42;;;15.05;;
37791;SDS011;29527;55.766;37.570;2022-12-24T07:30:07;26.02;;;15.20;;
37791;SDS011;29527;55.766;37.570;2022-12-24T07:32:33;24.17;;;14.52;;
37791;SDS011;29527;55.766;37.570;2022-12-24T07:34:59;27.33;;;15.05;;
37791;SDS011;29527;55.766;37.570;2022-12-24T07:37:24;23.73;;;14.57;;
37791;SDS011;29527;55.766;37.570;2022-12-24T07:39:50;25.70;;;14.90;;
37791;SDS011;29527;55.766;37.570;2022-12-24T07:42:15;27.25;;;16.05;;
37791;SDS011;29527;55.766;37.570;2022-12-24T07:44:41;27.35;;;16.33;;
37791;SDS011;29527;55.766;37.570;2022-12-24T07:47:06;27.00;;;14.77;;
37791;SDS011;29527;55.766;37.570;2022-12-24T07:49:31;26.30;;;14.77;;
37791;SDS011;29527;55.766;37.570;2022-12-24T07:51:57;24.77;;;15.05;;
37791;SDS011;29527;55.766;37.570;2022-12-24T07:54:22;25.10;;;14.80;;
37791;SDS011;29527;55.766;37.570;2022-12-24T07:56:48;22.98;;;13.82;;
37791;SDS011;29527;55.766;37.570;2022-12-24T07:59:13;21.95;;;13.57;;
37791;SDS011;29527;55.766;37.570;2022-12-24T08:01:39;21.92;;;12.77;;
37791;SDS011;29527;55.766;37.570;2022-12-24T08:04:05;20.95;;;13.73;;
37791;SDS011;29527;55.766;37.570;2022-12-24T08:06:31;22.45;;;13.10;;
37791;SDS011;29527;55.766;37.570;2022-12-24T08:08:56;20.02;;;12.65;;
37791;SDS011;29527;55.766;37.570;2022-12-24T08:11:22;19.60;;;12.63;;
37791;SDS011;29527;55.766;37.570;2022-12-24T08:13:47;19.40;;;11.63;;
37791;SDS011;29527;55.766;37.570;2022-12-24T08:16:13;20.17;;;12.50;;
37791;SDS011;29527;55.766;37.570;2022-12-24T08:18:38;20.65;;;13.07;;
37791;SDS011;29527;55.766;37.570;2022-12-24T08:21:06;19.33;;;12.73;;
37791;SDS011;29527;55.766;37.570;2022-12-24T08:23:33;19.27;;;12.07;;
37791;SDS011;29527;55.766;37.570;2022-12-24T08:25:58;20.65;;;11.73;;
37791;SDS011;29527;55.766;37.570;2022-12-24T08:28:24;18.00;;;11.38;;
37791;SDS011;29527;55.766;37.570;2022-12-24T08:30:50;18.42;;;11.48;;
37791;SDS011;29527;55.766;37.570;2022-12-24T08:33:16;18.52;;;11.95;;
37791;SDS011;29527;55.766;37.570;2022-12-24T08:35:48;16.48;;;10.82;;
37791;SDS011;29527;55.766;37.570;2022-12-24T08:38:15;16.55;;;10.80;;
37791;SDS011;29527;55.766;37.570;2022-12-24T08:40:41;16.83;;;10.68;;
37791;SDS011;29527;55.766;37.570;2022-12-24T08:43:06;16.45;;;10.38;;
37791;SDS011;29527;55.766;37.570;2022-12-24T08:45:32;17.73;;;10.50;;
37791;SDS011;29527;55.766;37.570;2022-12-24T08:47:58;17.90;;;10.25;;
37791;SDS011;29527;55.766;37.570;2022-12-24T08:50:24;17.75;;;10.40;;
37791;SDS011;29527;55.766;37.570;2022-12-24T08:52:50;15.07;;;10.13;;
37791;SDS011;29527;55.766;37.570;2022-12-24T08:55:15;16.95;;;10.18;;
37791;SDS011;29527;55.766;37.570;2022-12-24T08:57:41;15.10;;;9.88;;
37791;SDS011;29527;55.766;37.570;2022-12-24T09:00:06;13.00;;;9.82;;
37791;SDS011;29527;55.766;37.570;2022-12-24T09:02:33;13.25;;;8.57;;
37791;SDS011;29527;55.766;37.570;2022-12-24T09:04:59;13.80;;;9.10;;
37791;SDS011;29527;55.766;37.570;2022-12-24T09:07:24;15.50;;;10.07;;
37791;SDS011;29527;55.766;37.570;2022-12-24T09:09:50;13.25;;;9.60;;
37791;SDS011;29527;55.766;37.570;2022-12-24T09:12:15;12.80;;;8.82;;
37791;SDS011;29527;55.766;37.570;2022-12-24T09:14:41;13.02;;;8.80;;
37791;SDS011;29527;55.766;37.570;2022-12-24T09:17:06;12.98;;;8.20;;
37791;SDS011;29527;55.766;37.570;2022-12-24T09:19:32;11.27;;;8.13;;
37791;SDS011;29527;55.766;37.570;2022-12-24T09:21:57;13.02;;;9.25;;
37791;SDS011;29527;55.766;37.570;2022-12-24T09:24:22;12.65;;;8.77;;
37791;SDS011;29527;55.766;37.570;2022-12-24T09:26:48;14.60;;;9.30;;
37791;SDS011;29527;55.766;37.570;2022-12-24T09:29:14;10.80;;;8.38;;
37791;SDS011;29527;55.766;37.570;2022-12-24T09:31:40;12.02;;;7.93;;
37791;SDS011;29527;55.766;37.570;2022-12-24T09:34:06;11.63;;;8.25;;
37791;SDS011;29527;55.766;37.570;2022-12-24T09:36:32;15.07;;;8.93;;
37791;SDS011;29527;55.766;37.570;2022-12-24T09:38:58;12.68;;;8.27;;
37791;SDS011;29527;55.766;37.570;2022-12-24T09:46:53;14.55;;;8.40;;
37791;SDS011;29527;55.766;37.570;2022-12-24T09:49:23;16.83;;;9.85;;
37791;SDS011;29527;55.766;37.570;2022-12-24T09:51:54;14.65;;;9.02;;
37791;SDS011;29527;55.766;37.570;2022-12-24T09:54:25;14.18;;;8.63;;
37791;SDS011;29527;55.766;37.570;2022-12-24T09:56:54;11.63;;;8.38;;
37791;SDS011;29527;55.766;37.570;2022-12-24T09:59:23;14.68;;;8.85;;
37791;SDS011;29527;55.766;37.570;2022-12-24T10:01:55;11.77;;;8.45;;
37791;SDS011;29527;55.766;37.570;2022-12-24T10:04:22;14.88;;;8.40;;
37791;SDS011;29527;55.766;37.570;2022-12-24T10:06:56;15.30;;;8.95;;
37791;SDS011;29527;55.766;37.570;2022-12-24T10:12:33;13.00;;;8.43;;
37791;SDS011;29527;55.766;37.570;2022-12-24T10:15:29;12.63;;;9.05;;
37791;SDS011;29527;55.766;37.570;2022-12-24T10:28:43;13.68;;;8.45;;
37791;SDS011;29527;55.766;37.570;2022-12-24T10:31:12;12.13;;;8.07;;
37791;SDS011;29527;55.766;37.570;2022-12-24T10:33:39;11.05;;;8.00;;
37791;SDS011;29527;55.766;37.570;2022-12-24T10:36:10;10.77;;;7.80;;
37791;SDS011;29527;55.766;37.570;2022-12-24T10:38:41;10.68;;;7.32;;
37791;SDS011;29527;55.766;37.570;2022-12-24T10:41:07;9.68;;;6.60;;
37791;SDS011;29527;55.766;37.570;2022-12-24T10:43:33;9.30;;;7.18;;
37791;SDS011;29527;55.766;37.570;2022-12-24T10:46:05;9.30;;;6.75;;
37791;SDS011;29527;55.766;37.570;2022-12-24T10:48:40;11.55;;;7.40;;
37791;SDS011;29527;55.766;37.570;2022-12-24T10:51:12;10.52;;;7.47;;
37791;SDS011;29527;55.766;37.570;2022-12-24T10:54:18;14.90;;;9.85;;
37791;SDS011;29527;55.766;37.570;2022-12-24T10:56:41;11.57;;;7.18;;
37791;SDS011;29527;55.766;37.570;2022-12-24T11:02:25;12.10;;;8.03;;
37791;SDS011;29527;55.766;37.570;2022-12-24T11:04:51;10.85;;;7.70;;
37791;SDS011;29527;55.766;37.570;2022-12-24T11:07:18;12.20;;;8.45;;
37791;SDS011;29527;55.766;37.570;2022-12-24T11:12:25;10.57;;;7.13;;
37791;SDS011;29527;55.766;37.570;2022-12-24T11:14:59;13.48;;;7.72;;
37791;SDS011;29527;55.766;37.570;2022-12-24T11:17:29;12.13;;;6.82;;
37791;SDS011;29527;55.766;37.570;2022-12-24T11:19:55;11.85;;;7.32;;
37791;SDS011;29527;55.766;37.570;2022-12-24T11:22:25;13.18;;;7.03;;
37791;SDS011;29527;55.766;37.570;2022-12-24T11:25:37;12.70;;;7.38;;
37791;SDS011;29527;55.766;37.570;2022-12-24T11:28:45;9.20;;;6.90;;
37791;SDS011;29527;55.766;37.570;2022-12-24T11:33:22;11.15;;;6.57;;
37791;SDS011;29527;55.766;37.570;2022-12-24T11:35:50;10.25;;;6.72;;
37791;SDS011;29527;55.766;37.570;2022-12-24T11:38:19;9.43;;;6.55;;
37791;SDS011;29527;55.766;37.570;2022-12-24T11:40:48;9.45;;;7.22;;
37791;SDS011;29527;55.766;37.570;2022-12-24T11:43:21;9.88;;;6.55;;
37791;SDS011;29527;55.766;37.570;2022-12-24T11:45:51;9.55;;;6.38;;
37791;SDS011;29527;55.766;37.570;2022-12-24T11:48:36;10.60;;;6.68;;
37791;SDS011;29527;55.766;37.570;2022-12-24T11:51:06;8.70;;;6.15;;
37791;SDS011;29527;55.766;37.570;2022-12-24T11:53:48;8.98;;;5.72;;
37791;SDS011;29527;55.766;37.570;2022-12-24T11:56:36;8.63;;;5.78;;
37791;SDS011;29527;55.766;37.570;2022-12-24T11:59:10;11.10;;;6.45;;
37791;SDS011;29527;55.766;37.570;2022-12-24T12:04:45;9.18;;;6.03;;
37791;SDS011;29527;55.766;37.570;2022-12-24T12:07:23;9.55;;;6.53;;
37791;SDS011;29527;55.766;37.570;2022-12-24T12:10:02;9.20;;;6.13;;
37791;SDS011;29527;55.766;37.570;2022-12-24T12:12:31;10.00;;;6.28;;
37791;SDS011;29527;55.766;37.570;2022-12-24T12:15:01;8.13;;;5.93;;
37791;SDS011;29527;55.766;37.570;2022-12-24T12:17:31;11.60;;;8.07;;
37791;SDS011;29527;55.766;37.570;2022-12-24T12:20:11;9.15;;;6.18;;
37791;SDS011;29527;55.766;37.570;2022-12-24T12:28:25;8.32;;;5.90;;
37791;SDS011;29527;55.766;37.570;2022-12-24T12:31:04;9.70;;;6.35;;
37791;SDS011;29527;55.766;37.570;2022-12-24T12:33:41;7.22;;;5.63;;
37791;SDS011;29527;55.766;37.570;2022-12-24T12:36:13;8.85;;;6.55;;
37791;SDS011;29527;55.766;37.570;2022-12-24T12:38:43;8.52;;;5.70;;
37791;SDS011;29527;55.766;37.570;2022-12-24T12:43:46;9.38;;;6.38;;
37791;SDS011;29527;55.766;37.570;2022-12-24T12:49:21;10.70;;;5.90;;
37791;SDS011;29527;55.766;37.570;2022-12-24T12:52:02;11.02;;;6.32;;
37791;SDS011;29527;55.766;37.570;2022-12-24T12:57:12;9.45;;;5.57;;
37791;SDS011;29527;55.766;37.570;2022-12-24T12:59:43;12.38;;;6.25;;
37791;SDS011;29527;55.766;37.570;2022-12-24T13:02:16;7.85;;;5.68;;
37791;SDS011;29527;55.766;37.570;2022-12-24T13:21:23;9.20;;;5.65;;
37791;SDS011;29527;55.766;37.570;2022-12-24T13:34:47;7.80;;;5.50;;
37791;SDS011;29527;55.766;37.570;2022-12-24T13:47:56;7.68;;;5.15;;
37791;SDS011;29527;55.766;37.570;2022-12-24T13:50:42;5.60;;;4.50;;
37791;SDS011;29527;55.766;37.570;2022-12-24T13:53:45;9.00;;;5.63;;
37791;SDS011;29527;55.766;37.570;2022-12-24T13:58:33;8.90;;;5.68;;
37791;SDS011;29527;55.766;37.570;2022-12-24T14:01:04;8.13;;;5.85;;
37791;SDS011;29527;55.766;37.570;2022-12-24T14:06:10;6.95;;;5.03;;
37791;SDS011;29527;55.766;37.570;2022-12-24T14:08:45;6.57;;;4.85;;
37791;SDS011;29527;55.766;37.570;2022-12-24T14:11:14;5.85;;;4.63;;
37791;SDS011;29527;55.766;37.570;2022-12-24T14:21:34;6.82;;;5.30;;
37791;SDS011;29527;55.766;37.570;2022-12-24T14:24:09;10.35;;;7.15;;
37791;SDS011;29527;55.766;37.570;2022-12-24T14:26:50;9.88;;;5.32;;
37791;SDS011;29527;55.766;37.570;2022-12-24T14:29:30;7.10;;;5.15;;
37791;SDS011;29527;55.766;37.570;2022-12-24T14:31:59;7.03;;;5.65;;
37791;SDS011;29527;55.766;37.570;2022-12-24T14:34:29;7.50;;;5.10;;
37791;SDS011;29527;55.766;37.570;2022-12-24T14:37:02;6.80;;;5.03;;
37791;SDS011;29527;55.766;37.570;2022-12-24T14:39:35;7.50;;;5.60;;
37791;SDS011;29527;55.766;37.570;2022-12-24T14:45:18;7.05;;;5.45;;
37791;SDS011;29527;55.766;37.570;2022-12-24T14:55:52;6.93;;;5.97;;
37791;SDS011;29527;55.766;37.570;2022-12-24T15:00:50;9.95;;;6.00;;
37791;SDS011;29527;55.766;37.570;2022-12-24T15:03:18;7.97;;;5.82;;
37791;SDS011;29527;55.766;37.570;2022-12-24T15:05:49;9.40;;;5.50;;
37791;SDS011;29527;55.766;37.570;2022-12-24T15:08:17;9.27;;;6.35;;
37791;SDS011;29527;55.766;37.570;2022-12-24T15:10:51;8.27;;;5.93;;
37791;SDS011;29527;55.766;37.570;2022-12-24T15:13:27;7.78;;;5.40;;
37791;SDS011;29527;55.766;37.570;2022-12-24T15:16:05;8.93;;;6.13;;
37791;SDS011;29527;55.766;37.570;2022-12-24T15:18:34;10.43;;;6.57;;
37791;SDS011;29527;55.766;37.570;2022-12-24T15:21:04;8.80;;;7.00;;
37791;SDS011;29527;55.766;37.570;2022-12-24T15:23:35;9.95;;;6.45;;
37791;SDS011;29527;55.766;37.570;2022-12-24T15:26:20;10.85;;;6.65;;
37791;SDS011;29527;55.766;37.570;2022-12-24T15:28:50;9.48;;;6.57;;
37791;SDS011;29527;55.766;37.570;2022-12-24T15:31:21;12.50;;;7.40;;
37791;SDS011;29527;55.766;37.570;2022-12-24T15:33:49;10.63;;;7.00;;
37791;SDS011;29527;55.766;37.570;2022-12-24T15:36:23;10.38;;;6.75;;
37791;SDS011;29527;55.766;37.570;2022-12-24T15:39:03;12.88;;;7.30;;
37791;SDS011;29527;55.766;37.570;2022-12-24T15:41:40;15.73;;;7.53;;
37791;SDS011;29527;55.766;37.570;2022-12-24T15:44:26;10.48;;;6.70;;
37791;SDS011;29527;55.766;37.570;2022-12-24T15:47:00;10.85;;;7.15;;
37791;SDS011;29527;55.766;37.570;2022-12-24T15:49:27;11.68;;;7.38;;
37791;SDS011;29527;55.766;37.570;2022-12-24T15:52:05;9.68;;;6.80;;
37791;SDS011;29527;55.766;37.570;2022-12-24T15:54:33;12.25;;;6.95;;
37791;SDS011;29527;55.766;37.570;2022-12-24T15:57:10;11.00;;;6.82;;
37791;SDS011;29527;55.766;37.570;2022-12-24T15:59:38;13.20;;;7.35;;
37791;SDS011;29527;55.766;37.570;2022-12-24T16:02:17;10.85;;;6.65;;
37791;SDS011;29527;55.766;37.570;2022-12-24T16:04:49;11.63;;;7.00;;
37791;SDS011;29527;55.766;37.570;2022-12-24T16:07:24;12.27;;;7.25;;
37791;SDS011;29527;55.766;37.570;2022-12-24T16:12:49;11.88;;;7.20;;
37791;SDS011;29527;55.766;37.570;2022-12-24T16:15:15;14.88;;;7.35;;
37791;SDS011;29527;55.766;37.570;2022-12-24T16:17:40;14.82;;;7.20;;
37791;SDS011;29527;55.766;37.570;2022-12-24T16:20:17;9.77;;;7.03;;
37791;SDS011;29527;55.766;37.570;2022-12-24T16:22:45;11.77;;;7.00;;
37791;SDS011;29527;55.766;37.570;2022-12-24T16:27:48;12.68;;;7.57;;
37791;SDS011;29527;55.766;37.570;2022-12-24T16:30:14;11.88;;;7.82;;
37791;SDS011;29527;55.766;37.570;2022-12-24T16:32:40;11.20;;;7.88;;
37791;SDS011;29527;55.766;37.570;2022-12-24T16:35:09;16.85;;;8.38;;
37791;SDS011;29527;55.766;37.570;2022-12-24T16:37:48;10.88;;;7.60;;
37791;SDS011;29527;55.766;37.570;2022-12-24T16:40:13;11.05;;;8.15;;
37791;SDS011;29527;55.766;37.570;2022-12-24T16:42:40;11.98;;;7.43;;